Latest Coastal Weather Observations for Portland Harbour

IDS60701

Issued at 2:31 pm CDT Monday 22 December 2014 (issued every 10 minutes, with the page automatically refreshed every 10 minutes)

About coastal observations | Map of coastal stations | Coastal observations for SA | Marine services | Other Formats
Station Details ID: 090192 Name: PORTLAND NTC AWS Lat: -38.34 Lon: 141.61 Height: 0.0 m
Data from the previous 72 hours. | See also: Recent months for locations in South Australia
Date/Time
CDT
Temp

°C
Wind Pressure Rain
since 9am
mm
Weather Cloud Vis
km
Sea
Height
m
Swell
Dir
 
Speed
knots
Gust
knots
hPa Trend Height
m
Period
s
Dir
22/02:30pm 18.1 SE 11 16 1008.0 - - - - - - - - -
22/02:00pm 18.4 SE 11 16 1007.9 - - - - - - - - -
22/01:30pm 20.3 ESE 6 8 1008.6 - - - - - - - - -
22/01:00pm 19.8 ESE 2 5 1009.1 - - - - - - - - -
22/12:30pm 19.1 NNE 2 6 1009.4 - - - - - - - - -
22/12:00pm 18.8 E 9 12 1008.7 - - - - - - - - -
22/11:30am 18.7 NE 10 14 1009.4 - - - - - - - - -
22/11:00am 18.4 ENE 7 11 1010.0 - - - - - - - - -
22/10:30am 17.6 ENE 12 14 1009.8 - - - - - - - - -
22/10:00am 17.2 E 18 22 1009.8 - - - - - - - - -
22/09:30am 17.1 ENE 20 24 1010.2 - - - - - - - - -
22/09:00am 17.0 E 17 23 1011.0 - - - - - - - - -
22/08:30am 17.0 E 18 25 1010.3 - - - - - - - - -
22/08:24am 17.0 ESE 17 23 1010.7 - - - - - - - - -
22/08:00am 16.9 SE 21 26 1010.5 - - - - - - - - -
22/07:30am 17.1 SE 14 21 1011.6 - - - - - - - - -
22/07:00am 17.1 E 9 12 1012.7 - - - - - - - - -
22/06:30am 17.0 E 11 15 1011.8 - - - - - - - - -
22/06:00am 16.8 ESE 12 16 1011.7 - - - - - - - - -
22/05:30am 16.7 ESE 9 12 1012.3 - - - - - - - - -
22/05:00am 16.8 ESE 9 12 1012.2 - - - - - - - - -
22/04:30am 16.6 E 14 17 1011.5 - - - - - - - - -
22/04:00am 16.4 ENE 17 20 1011.5 - - - - - - - - -
22/03:30am 16.3 E 15 18 1011.4 - - - - - - - - -
22/03:00am 16.4 E 14 19 1011.7 - - - - - - - - -
22/02:30am 16.4 ESE 13 17 1012.0 - - - - - - - - -
22/02:00am 16.5 ESE 12 14 1012.9 - - - - - - - - -
22/01:30am 16.4 ESE 10 14 1013.5 - - - - - - - - -
22/01:00am 16.5 ESE 12 17 1013.8 - - - - - - - - -
22/12:30am 16.5 ESE 11 14 1014.2 - - - - - - - - -
22/12:00am 16.4 ESE 12 16 1014.2 - - - - - - - - -
 
Date/Time
CDT
Temp

°C
Wind Pressure Rain
since 9am
mm
Weather Cloud Vis
km
Sea
Height
m
Swell
Dir
 
Speed
knots
Gust
knots
hPa Trend Height
m
Period
s
Dir
21/11:30pm 16.4 ESE 12 15 1014.8 - - - - - - - - -
21/11:00pm 16.6 SE 11 15 1015.2 - - - - - - - - -
21/10:30pm 16.5 SE 12 16 1015.2 - - - - - - - - -
21/10:00pm 16.5 SE 12 15 1015.0 - - - - - - - - -
21/09:30pm 16.5 SE 12 15 1015.0 - - - - - - - - -
21/09:00pm 16.7 SE 12 17 1014.9 - - - - - - - - -
21/08:30pm 16.7 SE 11 15 1014.6 - - - - - - - - -
21/08:00pm 17.0 SE 11 14 1014.5 - - - - - - - - -
21/07:30pm 17.1 SE 12 15 1014.2 - - - - - - - - -
21/07:00pm 17.1 SE 13 16 1014.0 - - - - - - - - -
21/06:30pm 17.2 SSE 11 16 1013.7 - - - - - - - - -
21/06:00pm 17.0 SSE 12 17 1013.5 - - - - - - - - -
21/05:30pm 17.1 SSE 11 15 1013.4 - - - - - - - - -
21/05:00pm 18.0 SSE 9 12 1013.4 - - - - - - - - -
21/04:30pm 18.2 SSE 10 13 1013.4 - - - - - - - - -
21/04:00pm 18.0 SE 11 13 1013.3 - - - - - - - - -
21/03:30pm 18.4 SSE 9 12 1013.6 - - - - - - - - -
21/03:00pm 18.2 SSE 9 11 1013.7 - - - - - - - - -
21/02:30pm 17.9 SE 11 13 1013.6 - - - - - - - - -
21/02:00pm 18.6 S 9 11 1013.8 - - - - - - - - -
21/01:30pm 18.6 SSE 9 15 1014.1 - - - - - - - - -
21/01:00pm 18.6 S 10 12 1014.2 - - - - - - - - -
21/12:30pm 17.8 S 14 17 1014.3 - - - - - - - - -
21/12:00pm 17.7 S 13 16 1014.6 - - - - - - - - -
21/11:30am 17.9 S 15 21 1014.7 - - - - - - - - -
21/11:00am 20.8 SSW 12 16 1014.1 - - - - - - - - -
21/10:30am 17.9 ESE 6 8 1013.9 - - - - - - - - -
21/10:00am 16.9 ESE 4 6 1013.7 - - - - - - - - -
21/09:30am 16.1 E 3 5 1013.6 - - - - - - - - -
21/09:00am 15.9 ENE 3 4 1013.6 - - - - - - - - -
21/08:30am 16.1 ESE 2 3 1013.7 - - - - - - - - -
21/08:00am 15.3 ENE 3 5 1013.5 - - - - - - - - -
21/07:30am 14.9 NE 3 5 1013.4 - - - - - - - - -
21/07:00am 14.7 NE 6 7 1013.3 - - - - - - - - -
21/06:30am 14.8 NE 6 7 1012.9 - - - - - - - - -
21/06:00am 15.1 ENE 7 9 1012.8 - - - - - - - - -
21/05:30am 15.1 ENE 8 9 1012.8 - - - - - - - - -
21/05:00am 15.3 ENE 9 10 1012.6 - - - - - - - - -
21/04:30am 15.5 E 8 11 1012.8 - - - - - - - - -
21/04:00am 15.6 E 7 9 1013.3 - - - - - - - - -
21/03:30am 15.2 ENE 5 6 1013.7 - - - - - - - - -
21/03:00am 15.2 ENE 8 9 1013.7 - - - - - - - - -
21/02:30am 15.3 NE 10 12 1013.5 - - - - - - - - -
21/02:00am 15.3 NE 11 12 1013.8 - - - - - - - - -
21/01:30am 15.9 ENE 11 12 1014.0 - - - - - - - - -
21/01:00am 15.7 ENE 11 13 1014.6 - - - - - - - - -
21/12:30am 16.0 ENE 9 12 1015.3 - - - - - - - - -
21/12:00am 16.0 ENE 9 11 1016.1 - - - - - - - - -
 
Date/Time
CDT
Temp

°C
Wind Pressure Rain
since 9am
mm
Weather Cloud Vis
km
Sea
Height
m
Swell
Dir
 
Speed
knots
Gust
knots
hPa Trend Height
m
Period
s
Dir
20/11:30pm 16.0 E 8 10 1016.4 - - - - - - - - -
20/11:00pm 16.1 E 7 10 1016.5 - - - - - - - - -
20/10:30pm 16.1 E 7 8 1016.8 - - - - - - - - -
20/10:00pm 16.1 ESE 7 9 1017.1 - - - - - - - - -
20/09:30pm 16.4 SE 6 7 1017.1 - - - - - - - - -
20/09:00pm 16.4 SE 6 7 1017.0 - - - - - - - - -
20/08:30pm 16.7 SE 6 9 1017.1 - - - - - - - - -
20/08:00pm 16.9 SSE 6 9 1017.2 - - - - - - - - -
20/07:30pm 16.9 SSE 6 9 1017.1 - - - - - - - - -
20/07:00pm 16.9 S 9 12 1016.9 - - - - - - - - -
20/06:30pm 17.1 S 10 14 1016.7 - - - - - - - - -
20/06:00pm 17.4 S 11 15 1016.7 - - - - - - - - -
20/05:30pm 17.6 S 13 16 1016.7 - - - - - - - - -
20/05:00pm 18.0 S 12 18 1017.0 - - - - - - - - -
20/04:30pm 18.0 SSW 10 15 1017.2 - - - - - - - - -
20/04:00pm 17.6 SSW 10 15 1017.4 - - - - - - - - -
20/03:30pm 18.2 SW 10 15 1017.6 - - - - - - - - -
20/03:00pm 18.3 SSW 11 16 1017.9 - - - - - - - - -
20/02:30pm 18.3 SW 11 16 1018.3 - - - - - - - - -
20/02:00pm 18.0 SW 11 19 1018.5 - - - - - - - - -
20/01:30pm 17.6 SW 12 17 1018.9 - - - - - - - - -
20/01:00pm 17.8 SW 12 21 1018.9 - - - - - - - - -
20/12:30pm 18.2 WSW 10 14 1019.1 - - - - - - - - -
20/12:00pm 18.3 WSW 11 20 1019.4 - - - - - - - - -
20/11:30am 17.8 W 8 13 1019.3 - - - - - - - - -
20/11:00am 17.2 WSW 10 16 1019.4 - - - - - - - - -
20/10:30am 17.1 WSW 10 15 1019.5 - - - - - - - - -
20/10:00am 17.1 SW 9 14 1019.4 - - - - - - - - -
20/09:30am 16.8 SW 9 15 1019.5 - - - - - - - - -
20/09:00am 16.6 WSW 8 13 1019.4 - - - - - - - - -
20/08:30am 16.4 WSW 9 14 1019.2 - - - - - - - - -
20/08:00am 16.1 WSW 8 12 1018.9 - - - - - - - - -
20/07:30am 16.0 WSW 8 11 1018.5 - - - - - - - - -
20/07:00am 15.4 W 3 6 1018.2 - - - - - - - - -
20/06:30am 14.4 NW 3 5 1018.0 - - - - - - - - -
20/06:00am 14.3 NW 5 6 1017.8 - - - - - - - - -
20/05:30am 14.2 NNW 5 7 1017.7 - - - - - - - - -
20/05:00am 14.1 NW 3 5 1017.6 - - - - - - - - -
20/04:30am 13.8 WNW 3 5 1017.6 - - - - - - - - -
20/04:00am 13.5 WNW 4 6 1017.6 - - - - - - - - -
20/03:30am 13.5 NW 4 7 1017.6 - - - - - - - - -
20/03:00am 13.3 WNW 4 6 1017.8 - - - - - - - - -
20/02:30am 12.8 W 4 5 1018.1 - - - - - - - - -
20/02:00am 12.7 WNW 5 7 1018.4 - - - - - - - - -
20/01:30am 12.5 WNW 5 7 1018.7 - - - - - - - - -
20/01:00am 12.9 WNW 5 6 1019.0 - - - - - - - - -
20/12:30am 13.0 WNW 5 6 1019.1 - - - - - - - - -
20/12:00am 14.0 NW 4 5 1019.3 - - - - - - - - -
 
Date/Time
CDT
Temp

°C
Wind Pressure Rain
since 9am
mm
Weather Cloud Vis
km
Sea
Height
m
Swell
Dir
 
Speed
knots
Gust
knots
hPa Trend Height
m
Period
s
Dir
19/11:30pm 14.1 NW 4 5 1019.6 - - - - - - - - -
19/11:00pm 14.2 WNW 3 5 1019.8 - - - - - - - - -
19/10:30pm 14.7 NW 3 5 1019.9 - - - - - - - - -
19/10:00pm 14.7 NW 3 4 1020.1 - - - - - - - - -
19/09:30pm 14.6 W 3 4 1020.1 - - - - - - - - -
19/09:00pm 14.9 WNW 4 5 1019.9 - - - - - - - - -
19/08:30pm 15.4 W 6 8 1020.0 - - - - - - - - -
19/08:00pm 15.8 WSW 9 13 1020.1 - - - - - - - - -
19/07:30pm 16.0 WSW 10 14 1019.9 - - - - - - - - -
19/07:00pm 16.4 WSW 11 16 1019.6 - - - - - - - - -
19/06:30pm 16.6 SW 11 18 1019.5 - - - - - - - - -
19/06:00pm 16.4 SW 14 21 1019.3 - - - - - - - - -
19/05:30pm 16.4 WSW 13 18 1019.1 - - - - - - - - -
19/05:00pm 16.8 SW 14 19 1019.0 - - - - - - - - -
19/04:30pm 16.8 WSW 13 18 1019.0 - - - - - - - - -
19/04:00pm 16.4 WSW 13 21 1019.1 - - - - - - - - -
19/03:30pm 17.0 SW 13 19 1019.2 - - - - - - - - -
19/03:00pm 16.3 SW 15 21 1019.3 - - - - - - - - -
19/02:30pm 16.3 SW 15 21 1019.2 - - - - - - - - -

Other Formats:

Comma delimited format used in spreadsheet applications
http://www.bom.gov.au/fwo/IDS60701/IDS60701.95826.axf

JavaScript Object Notation format (JSON) in row-major order
http://www.bom.gov.au/fwo/IDS60701/IDS60701.95826.json